Latest Weather Observations for Wulungurru (Kintore)

IDD60801

Issued at 8:01 pm CST Monday 20 February 2017 (issued every 30 minutes, with the page automatically refreshed every 10 minutes)

About weather observations | Map of weather stations | Latest weather observations for NT | Other Formats
Station Details ID: 015664 Name: WALUNGURRU AIRPORT Lat: -23.27 Lon: 129.38 Height: 454.3 m
Data from the previous 72 hours. | See also: Recent months at Wulungurru (Kintore)
Date/Time
CST
Temp
°C
App
Temp
°C
Dew
Point
°C
Rel
Hum
%
Delta-T
°C
Wind Press
QNH
hPa
Press
MSL
hPa
Rain since
9am
mm
Dir  Spd
km/h
Gust
km/h
Spd
kts
Gust
kts
20/08:00pm 29.6 24.7 2.0 17 13.9 SE 17 24 9 13 1012.3 - 0.0
20/07:30pm 30.2 25.8 2.5 17 14.1 SE 15 20 8 11 1012.0 - 0.0
20/07:00pm 31.7 27.5 1.9 15 15.2 SE 13 19 7 10 1011.5 - 0.0
20/06:30pm 32.8 28.8 2.8 15 15.6 SSE 13 19 7 10 1011.3 - 0.0
20/06:00pm 33.3 29.7 3.2 15 15.8 ESE 11 20 6 11 1011.1 1007.7 0.0
20/05:30pm 33.7 28.9 2.5 14 16.2 SE 17 22 9 12 1011.0 - 0.0
20/05:00pm 33.2 29.3 1.1 13 16.3 ESE 11 17 6 9 1011.0 - 0.0
20/04:30pm 33.6 30.5 3.4 15 15.9 E 9 19 5 10 1011.0 - 0.0
20/04:00pm 34.5 30.0 2.1 13 16.8 SSE 15 22 8 12 1011.2 - 0.0
20/03:30pm 33.7 28.1 1.5 13 16.5 S 20 24 11 13 1011.5 - 0.0
20/03:00pm 33.8 29.2 3.6 15 16.0 SE 17 26 9 14 1011.9 1008.4 0.0
20/02:30pm 32.9 29.8 3.8 16 15.4 S 9 17 5 9 1012.3 - 0.0
20/02:00pm 33.2 30.0 4.9 17 15.3 SE 11 22 6 12 1012.8 - 0.0
20/01:30pm 31.8 28.6 2.9 16 15.0 NNE 9 17 5 9 1013.3 - 0.0
20/01:00pm 31.1 26.8 3.2 17 14.5 ENE 15 24 8 13 1013.9 - 0.0
20/12:30pm 31.2 27.4 4.1 18 14.3 E 13 20 7 11 1014.5 - 0.0
20/12:00pm 30.2 25.5 3.3 18 13.9 E 17 24 9 13 1014.8 1011.4 0.0
20/11:30am 29.8 24.8 3.7 19 13.5 E 19 30 10 16 1015.3 - 0.0
20/11:00am 28.9 23.9 4.4 21 12.8 E 20 28 11 15 1015.7 - 0.0
20/10:30am 27.4 22.4 4.5 23 11.9 E 20 32 11 17 1015.9 - 0.0
20/10:00am 26.3 20.1 4.1 24 11.4 ENE 26 35 14 19 1016.1 - 0.0
20/09:30am 25.5 19.0 4.6 26 10.7 ENE 28 37 15 20 1016.1 - 0.0
20/09:00am 24.6 18.4 4.4 27 10.3 E 26 35 14 19 1016.0 1012.6 0.0
20/08:30am 23.4 18.1 4.9 30 9.4 E 22 32 12 17 1015.8 - 0.0
20/08:00am 23.3 17.9 4.3 29 9.6 E 22 32 12 17 1015.6 - 0.0
20/07:30am 22.6 17.0 3.7 29 9.4 E 22 32 12 17 1015.1 - 0.0
20/07:00am 22.4 17.2 3.5 29 9.3 E 20 30 11 16 1014.5 - 0.0
20/06:30am 22.7 18.0 3.3 28 9.6 E 17 28 9 15 1014.0 - 0.0
20/06:00am 22.2 17.5 3.3 29 9.3 ESE 17 24 9 13 1013.8 1010.4 0.0
20/05:30am 22.5 17.5 3.6 29 9.3 ESE 19 26 10 14 1013.5 - 0.0
20/05:00am 23.7 17.7 3.1 26 10.2 E 24 33 13 18 1013.3 - 0.0
20/04:30am 23.8 16.6 3.2 26 10.2 E 30 44 16 24 1012.9 - 0.0
20/04:00am 24.4 16.8 3.1 25 10.6 E 32 44 17 24 1012.9 - 0.0
20/03:30am 24.7 17.5 2.8 24 10.8 E 30 41 16 22 1013.1 - 0.0
20/03:00am 24.6 18.1 2.7 24 10.8 ESE 26 39 14 21 1013.2 1009.8 0.0
20/02:30am 25.0 18.2 3.0 24 10.9 ESE 28 39 15 21 1013.3 - 0.0
20/02:00am 24.3 18.2 3.0 25 10.5 SE 24 33 13 18 1013.5 - 0.0
20/01:30am 24.4 18.0 3.1 25 10.6 SE 26 33 14 18 1013.9 - 0.0
20/01:00am 25.7 18.5 3.0 23 11.3 SE 30 44 16 24 1014.2 - 0.0
20/12:30am 25.1 18.3 3.1 24 11.0 SE 28 35 15 19 1014.0 - 0.0
20/12:00am 25.6 19.3 3.5 24 11.1 SE 26 35 14 19 1014.0 1010.6 0.0
 
Date/Time
CST
Temp
°C
App
Temp
°C
Dew
Point
°C
Rel
Hum
%
Delta-T
°C
Wind Press
QNH
hPa
Press
MSL
hPa
Rain since
9am
mm
Dir  Spd
km/h
Gust
km/h
Spd
kts
Gust
kts
19/11:30pm 25.9 19.9 3.2 23 11.4 SE 24 35 13 19 1014.2 - 0.0
19/11:00pm 26.5 19.8 3.7 23 11.6 SE 28 39 15 21 1014.0 - 0.0
19/10:30pm 27.3 20.9 3.1 21 12.2 SE 26 39 14 21 1013.9 - 0.0
19/10:00pm 27.5 22.0 3.9 22 12.1 SE 22 32 12 17 1013.8 - 0.0
19/09:30pm 28.1 22.3 4.4 22 12.3 SE 24 32 13 17 1013.4 - 0.0
19/09:00pm 28.5 23.1 4.7 22 12.5 SE 22 28 12 15 1013.0 1009.6 0.0
19/08:30pm 28.6 24.4 5.5 23 12.3 SE 17 20 9 11 1012.8 - 0.0
19/08:00pm 29.0 25.2 5.8 23 12.4 SE 15 20 8 11 1012.4 - 0.0
19/07:30pm 30.1 25.5 5.4 21 13.2 SSE 19 26 10 14 1012.0 - 0.0
19/07:00pm 31.3 26.5 4.9 19 14.1 SE 19 26 10 14 1011.6 - 0.0
19/06:30pm 32.2 28.0 5.7 19 14.4 SE 17 24 9 13 1011.4 - 0.0
19/06:00pm 32.8 28.7 6.2 19 14.6 SE 17 26 9 14 1011.4 1008.0 0.0
19/05:30pm 32.9 28.7 5.5 18 14.9 SSE 17 28 9 15 1011.2 - 0.0
19/05:00pm 33.4 29.6 5.9 18 15.1 SE 15 20 8 11 1011.4 - 0.0
19/04:30pm 33.1 29.6 5.6 18 15.0 SE 13 20 7 11 1011.6 - 0.0
19/04:00pm 33.3 29.3 5.0 17 15.3 SSE 15 26 8 14 1011.9 - 0.0
19/03:30pm 33.2 28.4 4.9 17 15.3 SE 19 28 10 15 1012.4 - 0.0
19/03:00pm 33.1 28.5 5.6 18 15.0 ESE 19 28 10 15 1012.5 1009.1 0.0
19/02:30pm 33.0 28.9 6.3 19 14.7 SSE 17 26 9 14 1012.9 - 0.0
19/02:00pm 32.8 28.1 6.2 19 14.6 SE 20 30 11 16 1013.4 - 0.0
19/01:30pm 32.5 28.1 6.7 20 14.3 SE 19 28 10 15 1013.7 - 0.0
19/01:00pm 32.2 27.9 7.1 21 14.0 SE 19 30 10 16 1014.0 - 0.0
19/12:30pm 31.8 27.5 6.8 21 13.8 SE 19 32 10 17 1014.6 - 0.0
19/12:00pm 31.1 26.8 6.9 22 13.3 E 19 32 10 17 1015.0 1011.6 0.0
19/11:30am 29.8 24.3 5.8 22 12.9 E 24 32 13 17 1015.6 - 0.0
19/11:00am 28.9 23.2 5.1 22 12.6 E 24 35 13 19 1015.9 - 0.0
19/10:30am 28.5 22.1 5.4 23 12.2 E 28 35 15 19 1016.2 - 0.0
19/10:00am 27.9 22.7 5.5 24 11.9 E 22 32 12 17 1016.6 - 0.0
19/09:30am 26.6 20.4 4.4 24 11.4 E 26 43 14 23 1016.6 - 0.0
19/09:19am 26.3 19.7 4.1 24 11.4 ESE 28 48 15 26 1016.5 - 0.0
19/09:00am 25.8 19.3 4.9 26 10.8 ESE 28 41 15 22 1016.5 1013.1 0.0
19/08:52am 25.4 18.5 4.5 26 10.7 ESE 30 48 16 26 1016.5 - 0.0
19/08:30am 24.6 18.0 4.4 27 10.3 ESE 28 37 15 20 1016.1 - 0.0
19/08:00am 23.4 16.1 4.4 29 9.6 SE 32 43 17 23 1015.9 - 0.0
19/07:30am 22.7 15.7 4.2 30 9.3 SE 30 44 16 24 1015.6 - 0.0
19/07:00am 22.2 15.6 4.3 31 9.0 SE 28 39 15 21 1015.3 - 0.0
19/06:30am 22.2 16.1 4.7 32 8.8 SE 26 37 14 20 1015.0 - 0.0
19/06:00am 22.7 15.5 5.2 32 8.9 SE 32 41 17 22 1014.7 1011.3 0.0
19/05:30am 23.2 15.1 5.1 31 9.2 SE 37 50 20 27 1014.4 - 0.0
19/05:00am 23.4 16.4 5.8 32 9.1 SE 32 43 17 23 1014.0 - 0.0
19/04:30am 23.7 16.7 6.0 32 9.2 SE 32 50 17 27 1013.8 - 0.0
19/04:11am 23.9 17.3 6.2 32 9.3 SE 30 48 16 26 1013.8 - 0.0
19/04:00am 24.2 17.0 6.0 31 9.5 SE 33 46 18 25 1013.6 - 0.0
19/03:30am 24.6 17.5 6.4 31 9.6 SE 33 50 18 27 1013.6 - 0.0
19/03:23am 24.6 17.7 6.4 31 9.6 SE 32 50 17 27 1013.6 - 0.0
19/03:00am 24.7 18.3 6.9 32 9.5 SE 30 39 16 21 1013.5 1010.1 0.0
19/02:30am 25.1 18.3 6.8 31 9.8 SE 32 41 17 22 1013.6 - 0.0
19/02:00am 25.3 18.5 7.0 31 9.8 SE 32 41 17 22 1013.5 - 0.0
19/01:30am 25.7 18.9 6.8 30 10.1 SE 32 43 17 23 1013.6 - 0.0
19/01:00am 26.3 19.4 6.3 28 10.6 SE 32 41 17 22 1013.8 - 0.0
19/12:30am 26.9 20.7 6.3 27 11.0 SE 28 37 15 20 1014.2 - 0.0
19/12:00am 27.6 20.9 5.8 25 11.6 SE 30 43 16 23 1014.3 1010.8 0.0
 
Date/Time
CST
Temp
°C
App
Temp
°C
Dew
Point
°C
Rel
Hum
%
Delta-T
°C
Wind Press
QNH
hPa
Press
MSL
hPa
Rain since
9am
mm
Dir  Spd
km/h
Gust
km/h
Spd
kts
Gust
kts
18/11:30pm 27.5 22.7 5.7 25 11.6 SE 20 26 11 14 1014.5 - 0.0
18/11:00pm 27.7 23.0 5.3 24 11.8 SE 19 24 10 13 1014.5 - 0.0
18/10:30pm 28.2 23.7 6.9 26 11.6 SE 20 26 11 14 1014.4 - 0.0
18/10:00pm 28.6 24.5 8.8 29 11.1 SE 20 26 11 14 1014.2 - 0.0
18/09:30pm 28.7 25.9 9.9 31 10.8 SSE 15 19 8 10 1014.0 - 0.0
18/09:00pm 30.0 26.7 9.5 28 11.7 SE 17 22 9 12 1013.6 1010.2 0.0
18/08:30pm 30.9 27.6 9.7 27 12.2 SSE 17 24 9 13 1013.2 - 0.0
18/08:00pm 31.4 28.1 9.6 26 12.6 SSE 17 22 9 12 1013.0 - 0.0
18/07:30pm 32.6 28.9 9.4 24 13.4 SSE 19 26 10 14 1012.5 - 0.0
18/07:00pm 33.9 29.6 9.2 22 14.3 S 22 30 12 16 1012.2 - 0.0
18/06:30pm 35.1 31.2 8.8 20 15.2 SSE 19 28 10 15 1011.9 - 0.0
18/06:00pm 35.6 31.4 8.4 19 15.7 SSE 20 32 11 17 1011.5 1008.1 0.0
18/05:30pm 36.2 32.2 8.9 19 15.9 SSE 20 28 11 15 1011.5 - 0.0
18/05:00pm 36.4 33.0 9.1 19 16.0 SE 17 28 9 15 1011.5 - 0.0
18/04:30pm 36.7 33.0 9.3 19 16.1 ESE 19 28 10 15 1011.7 - 0.0
18/04:00pm 36.4 33.7 9.1 19 16.0 E 13 24 7 13 1012.0 - 0.0
18/03:30pm 36.3 33.1 9.8 20 15.6 E 17 26 9 14 1012.2 - 0.0
18/03:00pm 36.8 34.1 10.2 20 15.8 SSE 15 20 8 11 1012.5 1009.1 0.0
18/02:30pm 36.9 33.6 11.0 21 15.6 SE 19 28 10 15 1012.9 - 0.0
18/02:00pm 36.4 33.4 10.6 21 15.4 ESE 17 28 9 15 1013.2 - 0.0
18/01:30pm 36.4 33.6 11.3 22 15.2 ESE 17 30 9 16 1013.5 - 0.0
18/01:00pm 35.7 32.5 10.0 21 15.2 SE 17 26 9 14 1014.0 - 0.0
18/12:30pm 35.4 32.3 10.4 22 14.8 E 17 32 9 17 1014.5 - 0.0
18/12:00pm 35.3 32.0 11.0 23 14.5 ESE 19 35 10 19 1014.9 1011.5 0.0
18/11:30am 34.0 30.0 10.6 24 13.9 ESE 22 35 12 19 1015.1 - 0.0
18/11:00am 33.3 28.0 11.2 26 13.2 ESE 30 41 16 22 1015.2 - 0.0
18/10:30am 32.1 26.3 10.7 27 12.6 ESE 32 43 17 23 1015.4 - 0.0
18/10:00am 31.2 24.5 11.1 29 11.9 SE 37 48 20 26 1015.5 - 0.0
18/09:30am 30.1 23.3 10.6 30 11.4 ESE 37 54 20 29 1015.4 - 0.0
18/09:00am 29.2 22.1 10.8 32 10.7 SE 39 54 21 29 1015.2 1011.8 0.0
18/08:30am 28.1 21.0 10.8 34 10.0 SE 39 52 21 28 1015.0 - 0.0
18/08:20am 27.8 21.0 10.5 34 10.0 SE 37 56 20 30 1015.0 - 0.0
18/08:00am 27.3 20.7 11.3 37 9.3 SE 37 54 20 29 1014.9 - 0.0
18/07:30am 26.8 20.1 10.9 37 9.2 SE 37 50 20 27 1014.4 - 0.0
18/07:00am 26.4 19.5 11.7 40 8.6 SE 39 50 21 27 1013.8 - 0.0
18/06:30am 26.8 20.3 11.7 39 8.8 SE 37 50 20 27 1013.3 - 0.0
18/06:00am 27.2 20.7 11.7 38 9.1 SE 37 48 20 26 1013.0 1009.6 0.0
18/05:30am 27.7 20.8 11.7 37 9.4 SE 39 56 21 30 1012.6 - 0.0
18/05:00am 28.0 21.2 12.0 37 9.4 SE 39 57 21 31 1012.2 - 0.0
18/04:55am 28.2 21.3 11.7 36 9.7 SE 39 57 21 31 1012.0 - 0.0
18/04:30am 28.4 22.0 11.9 36 9.7 SE 37 54 20 29 1011.7 - 0.0
18/04:00am 28.9 22.0 11.5 34 10.2 SE 39 50 21 27 1011.6 - 0.0
18/03:30am 29.4 23.2 11.5 33 10.5 SE 35 48 19 26 1011.5 - 0.0
18/03:00am 29.5 23.6 10.6 31 11.0 SE 32 41 17 22 1011.4 1008.0 0.0
18/02:30am 30.2 24.0 10.2 29 11.6 SE 33 48 18 26 1011.4 - 0.0
18/02:00am 30.7 24.7 10.1 28 11.9 SE 32 43 17 23 1011.5 - 0.0
18/01:30am 31.2 25.4 9.4 26 12.5 SE 30 43 16 23 1011.5 - 0.0
18/01:00am 31.5 26.4 9.1 25 12.8 SE 26 41 14 22 1011.7 - 0.0
18/12:30am 31.9 26.2 8.2 23 13.4 SE 28 41 15 22 1012.0 - 0.0
18/12:00am 31.6 26.6 7.9 23 13.3 SE 24 32 13 17 1011.9 1008.4 0.0
 
Date/Time
CST
Temp
°C
App
Temp
°C
Dew
Point
°C
Rel
Hum
%
Delta-T
°C
Wind Press
QNH
hPa
Press
MSL
hPa
Rain since
9am
mm
Dir  Spd
km/h
Gust
km/h
Spd
kts
Gust
kts
17/11:30pm 34.1 28.5 5.6 17 15.6 SE 24 30 13 16 1011.5 - 0.0
17/11:00pm 34.4 28.0 5.0 16 16.0 SE 28 39 15 21 1011.5 - 0.0
17/10:30pm 34.4 28.3 5.0 16 16.0 SE 26 33 14 18 1011.4 - 0.0
17/10:00pm 34.9 29.1 4.4 15 16.5 SE 24 33 13 18 1011.1 - 0.0
17/09:30pm 34.9 30.1 5.4 16 16.2 SE 20 28 11 15 1011.1 - 0.0
17/09:00pm 34.9 30.8 6.2 17 16.0 ESE 17 20 9 11 1010.9 1007.5 0.0
17/08:30pm 35.2 31.2 6.5 17 16.0 ESE 17 22 9 12 1010.5 - 0.0

Other Formats:

Comma delimited format used in spreadsheet applications
http://www.bom.gov.au/fwo/IDD60801/IDD60801.94321.axf

JavaScript Object Notation format (JSON) in row-major order
http://www.bom.gov.au/fwo/IDD60801/IDD60801.94321.json